METAR Data
IDs: Format: Raw Decoded Include TAF

Data at: 0138 UTC 19 Oct 2021

PAVL 190053Z AUTO 08011KT 10SM CLR M07/M12 A2970 RMK AO2 SLP057 T10721122 TSNO
PAVL 182353Z AUTO 08010KT 10SM CLR M07/M12 A2971 RMK AO2 SLP062 T10671117 11067 21128 56023 TSNO
PAVL 182253Z AUTO 08010KT 10SM CLR M07/M12 A2973 RMK AO2 SLP069 T10721117 TSNO
PAVL 182153Z AUTO 07011KT 10SM CLR M08/M12 A2976 RMK AO2 SLP077 T10781122 TSNO
PAVL 182053Z AUTO 07011KT 10SM CLR M09/M13 A2978 RMK AO2 SLP085 T10941128 58015 TSNO
PAVL 181953Z AUTO 06008KT 10SM CLR M12/M14 A2980 RMK AO2 SLP092 T11171144 TSNO
PAVL 181853Z AUTO 05008KT 10SM CLR M13/M15 A2981 RMK AO2 SLP095 T11281150 TSNO
PAVL 181753Z AUTO 05007KT 10SM CLR M13/M16 A2983 RMK AO2 SLP100 T11281156 11100 21128 TSNO
PAVL 181653Z AUTO 03006KT 10SM CLR M12/M16 A2985 RMK AO2 SLP107 T11221156 TSNO
PAVL 181453Z AUTO 02006KT 10SM CLR M12/M15 A2987 RMK AO2 SLP114 T11221150 56008 TSNO $
PAVL 181353Z AUTO 05007KT 10SM CLR M12/M14 A2987 RMK AO2 SLP117 T11171144 TSNO $
PAVL 181253Z AUTO 03008KT 10SM CLR M12/M15 A2988 RMK AO2 SLP119 T11171150 TSNO $
PAVL 181153Z AUTO 05007KT 10SM CLR M11/M14 A2989 RMK AO2 SLP123 T11061139 11089 21117 50001 TSNO $
PAVL 181053Z AUTO 03006KT 10SM CLR M12/M14 A2989 RMK AO2 SLP123 T11171144 TSNO $
PAVL 180953Z AUTO 04007KT 10SM CLR M11/M14 A2989 RMK AO2 SLP122 T11111139 TSNO $
PAVL 180853Z AUTO 02006KT 10SM CLR M10/M13 A2989 RMK AO2 SLP121 T11001133 410561111 51005 TSNO $
PAVL 180753Z AUTO 36006KT 10SM CLR M10/M13 A2989 RMK AO2 SLP121 T11001133 TSNO $
PAVL 180653Z AUTO 01008KT 10SM CLR M09/M13 A2988 RMK AO2 SLP118 T10941128 TSNO $
PAVL 180553Z AUTO 02011KT 10SM CLR M09/M13 A2987 RMK AO2 SLP116 T10891128 11056 21089 53009 TSNO $
PAVL 180453Z AUTO 03016KT 10SM CLR M08/M12 A2986 RMK AO2 SLP112 T10831122 TSNO $
PAVL 180353Z AUTO 03018KT 10SM CLR M08/M12 A2986 RMK AO2 PK WND 03027/0307 SLP110 T10781122 TSNO $
PAVL 180253Z AUTO 03021KT 10SM CLR M07/M12 A2985 RMK AO2 PK WND 02029/0230 SLP107 T10671117 53011 TSNO $
PAVL 180153Z AUTO 02023KT 10SM CLR M06/M11 A2983 RMK AO2 PK WND 03035/0110 SLP102 T10611111 TSNO $
PAVL 180053Z AUTO 03026G32KT 10SM CLR M06/M11 A2982 RMK AO2 PK WND 03035/0043 SLP098 T10561111 TSNO $
PAVL 172353Z AUTO 02027KT 10SM CLR M06/M11 A2981 RMK AO2 PK WND 02031/2326 SLP096 T10561106 11056 21094 53010 TSNO $
PAVL 172253Z AUTO 02023KT 10SM CLR M06/M10 A2980 RMK AO2 PK WND 02031/2246 SLP092 T10561100 TSNO $
PAVL 172153Z AUTO 02026KT 10SM CLR M06/M10 A2978 RMK AO2 PK WND 02030/2153 SLP086 T10611100 TSNO $
PAVL 172053Z AUTO 02020KT 10SM CLR M06/M10 A2978 RMK AO2 PK WND 02028/2031 SLP086 T10611100 51006 TSNO $
PAVL 171953Z AUTO 02020KT 10SM CLR M07/M11 A2978 RMK AO2 SLP085 T10721106 TSNO $
PAVL 171853Z AUTO 03013KT 10SM CLR M08/M11 A2978 RMK AO2 SLP084 T10831111 TSNO $
PAVL 171753Z AUTO 03014KT 10SM CLR M09/M11 A2977 RMK AO2 SLP079 T10891111 11089 21106 52002 TSNO $
PAVL 171653Z AUTO 02014KT 10SM CLR M09/M12 A2976 RMK AO2 SLP079 T10941117 TSNO $
PAVL 171553Z AUTO 02013KT 10SM CLR M09/M12 A2976 RMK AO2 SLP078 T10941117 TSNO $
PAVL 171453Z AUTO 03011KT 10SM CLR M10/M12 A2976 RMK AO2 SLP077 T11001122 55000 TSNO $
PAVL 171353Z AUTO 03013KT 10SM CLR M10/M12 A2976 RMK AO2 SLP077 T11001122 TSNO $